sensor_id;sensor_type;location;lat;lon;timestamp;temperature;humidity
22738;DHT22;11536;50.860;4.286;2023-03-09T00:01:25;5.10;99.90
22738;DHT22;11536;50.860;4.286;2023-03-09T00:03:51;5.10;99.90
22738;DHT22;11536;50.860;4.286;2023-03-09T00:06:17;5.10;99.90
22738;DHT22;11536;50.860;4.286;2023-03-09T00:08:44;5.10;99.90
22738;DHT22;11536;50.860;4.286;2023-03-09T00:11:10;5.10;99.90
22738;DHT22;11536;50.860;4.286;2023-03-09T00:13:35;5.10;99.90
22738;DHT22;11536;50.860;4.286;2023-03-09T00:18:38;5.10;99.90
22738;DHT22;11536;50.860;4.286;2023-03-09T00:21:04;5.20;99.90
22738;DHT22;11536;50.860;4.286;2023-03-09T00:23:30;5.20;99.90
22738;DHT22;11536;50.860;4.286;2023-03-09T00:25:55;5.20;99.90
22738;DHT22;11536;50.860;4.286;2023-03-09T00:28:27;5.20;99.90
22738;DHT22;11536;50.860;4.286;2023-03-09T00:30:53;5.20;99.90
22738;DHT22;11536;50.860;4.286;2023-03-09T00:33:18;5.20;99.90
22738;DHT22;11536;50.860;4.286;2023-03-09T00:35:44;5.20;99.90
22738;DHT22;11536;50.860;4.286;2023-03-09T00:38:09;5.30;99.90
22738;DHT22;11536;50.860;4.286;2023-03-09T00:40:36;5.20;99.90
22738;DHT22;11536;50.860;4.286;2023-03-09T00:43:02;5.20;99.90
22738;DHT22;11536;50.860;4.286;2023-03-09T00:45:27;5.20;99.90
22738;DHT22;11536;50.860;4.286;2023-03-09T00:47:53;5.20;99.90
22738;DHT22;11536;50.860;4.286;2023-03-09T00:50:18;5.20;99.90
22738;DHT22;11536;50.860;4.286;2023-03-09T00:52:44;5.10;99.90
22738;DHT22;11536;50.860;4.286;2023-03-09T00:55:10;5.10;99.90
22738;DHT22;11536;50.860;4.286;2023-03-09T00:57:36;5.00;99.90
22738;DHT22;11536;50.860;4.286;2023-03-09T01:00:02;5.00;99.90
22738;DHT22;11536;50.860;4.286;2023-03-09T01:02:29;5.00;99.90
22738;DHT22;11536;50.860;4.286;2023-03-09T01:04:54;4.90;99.90
22738;DHT22;11536;50.860;4.286;2023-03-09T01:07:20;4.90;99.90
22738;DHT22;11536;50.860;4.286;2023-03-09T01:09:47;4.90;99.90
22738;DHT22;11536;50.860;4.286;2023-03-09T01:12:13;4.80;99.90
22738;DHT22;11536;50.860;4.286;2023-03-09T01:14:39;4.80;99.90
22738;DHT22;11536;50.860;4.286;2023-03-09T01:17:04;4.80;99.90
22738;DHT22;11536;50.860;4.286;2023-03-09T01:19:30;4.80;99.90
22738;DHT22;11536;50.860;4.286;2023-03-09T01:21:56;4.80;99.90
22738;DHT22;11536;50.860;4.286;2023-03-09T01:24:22;4.80;99.90
22738;DHT22;11536;50.860;4.286;2023-03-09T01:26:48;4.80;99.90
22738;DHT22;11536;50.860;4.286;2023-03-09T01:29:14;4.80;99.90
22738;DHT22;11536;50.860;4.286;2023-03-09T01:31:39;4.80;99.90
22738;DHT22;11536;50.860;4.286;2023-03-09T01:34:05;4.80;99.90
22738;DHT22;11536;50.860;4.286;2023-03-09T01:36:31;4.70;99.90
22738;DHT22;11536;50.860;4.286;2023-03-09T01:38:57;4.70;99.90
22738;DHT22;11536;50.860;4.286;2023-03-09T01:41:22;4.80;99.90
22738;DHT22;11536;50.860;4.286;2023-03-09T01:43:50;4.80;99.90
22738;DHT22;11536;50.860;4.286;2023-03-09T01:54:04;4.90;99.90
22738;DHT22;11536;50.860;4.286;2023-03-09T01:56:32;4.80;99.90
22738;DHT22;11536;50.860;4.286;2023-03-09T01:59:02;4.90;99.90
22738;DHT22;11536;50.860;4.286;2023-03-09T02:01:29;4.90;99.90
22738;DHT22;11536;50.860;4.286;2023-03-09T02:04:02;4.90;99.90
22738;DHT22;11536;50.860;4.286;2023-03-09T02:06:30;4.90;99.90
22738;DHT22;11536;50.860;4.286;2023-03-09T02:09:19;4.90;99.90
22738;DHT22;11536;50.860;4.286;2023-03-09T02:11:46;5.00;99.90
22738;DHT22;11536;50.860;4.286;2023-03-09T02:14:13;5.00;99.90
22738;DHT22;11536;50.860;4.286;2023-03-09T02:16:39;5.00;99.90
22738;DHT22;11536;50.860;4.286;2023-03-09T02:19:06;5.00;99.90
22738;DHT22;11536;50.860;4.286;2023-03-09T02:21:49;5.00;99.90
22738;DHT22;11536;50.860;4.286;2023-03-09T02:27:00;5.00;99.90
22738;DHT22;11536;50.860;4.286;2023-03-09T02:29:27;5.00;99.90
22738;DHT22;11536;50.860;4.286;2023-03-09T02:31:53;5.00;99.90
22738;DHT22;11536;50.860;4.286;2023-03-09T02:34:19;5.00;99.90
22738;DHT22;11536;50.860;4.286;2023-03-09T02:36:44;5.00;99.90
22738;DHT22;11536;50.860;4.286;2023-03-09T02:41:58;5.00;99.90
22738;DHT22;11536;50.860;4.286;2023-03-09T02:44:25;5.00;99.90
22738;DHT22;11536;50.860;4.286;2023-03-09T02:46:51;5.10;99.90
22738;DHT22;11536;50.860;4.286;2023-03-09T02:49:17;5.10;99.90
22738;DHT22;11536;50.860;4.286;2023-03-09T02:51:43;5.00;99.90
22738;DHT22;11536;50.860;4.286;2023-03-09T02:54:09;5.00;99.90
22738;DHT22;11536;50.860;4.286;2023-03-09T02:56:34;5.00;99.90
22738;DHT22;11536;50.860;4.286;2023-03-09T02:59:00;5.00;99.90
22738;DHT22;11536;50.860;4.286;2023-03-09T03:01:28;5.00;99.90
22738;DHT22;11536;50.860;4.286;2023-03-09T03:03:54;5.00;99.90
22738;DHT22;11536;50.860;4.286;2023-03-09T03:06:19;5.00;99.90
22738;DHT22;11536;50.860;4.286;2023-03-09T03:08:45;5.00;99.90
22738;DHT22;11536;50.860;4.286;2023-03-09T03:11:11;5.00;99.90
22738;DHT22;11536;50.860;4.286;2023-03-09T03:13:36;5.00;99.90
22738;DHT22;11536;50.860;4.286;2023-03-09T03:16:03;5.00;99.90
22738;DHT22;11536;50.860;4.286;2023-03-09T03:18:29;4.90;99.90
22738;DHT22;11536;50.860;4.286;2023-03-09T03:20:55;5.00;99.90
22738;DHT22;11536;50.860;4.286;2023-03-09T03:23:21;5.00;99.90
22738;DHT22;11536;50.860;4.286;2023-03-09T03:25:47;5.00;99.90
22738;DHT22;11536;50.860;4.286;2023-03-09T03:28:13;4.90;99.90
22738;DHT22;11536;50.860;4.286;2023-03-09T03:30:39;4.80;99.90
22738;DHT22;11536;50.860;4.286;2023-03-09T03:33:04;4.80;99.90
22738;DHT22;11536;50.860;4.286;2023-03-09T03:35:30;4.90;99.90
22738;DHT22;11536;50.860;4.286;2023-03-09T03:37:55;4.80;99.90
22738;DHT22;11536;50.860;4.286;2023-03-09T03:40:22;4.80;99.90
22738;DHT22;11536;50.860;4.286;2023-03-09T03:42:48;4.80;99.90
22738;DHT22;11536;50.860;4.286;2023-03-09T03:45:14;4.90;99.90
22738;DHT22;11536;50.860;4.286;2023-03-09T03:47:39;4.90;99.90
22738;DHT22;11536;50.860;4.286;2023-03-09T03:50:06;5.00;99.90
22738;DHT22;11536;50.860;4.286;2023-03-09T03:52:31;5.00;99.90
22738;DHT22;11536;50.860;4.286;2023-03-09T03:54:57;4.90;99.90
22738;DHT22;11536;50.860;4.286;2023-03-09T03:57:23;4.90;99.90
22738;DHT22;11536;50.860;4.286;2023-03-09T03:59:49;4.90;99.90
22738;DHT22;11536;50.860;4.286;2023-03-09T04:02:14;4.90;99.90
22738;DHT22;11536;50.860;4.286;2023-03-09T04:04:40;4.90;99.90
22738;DHT22;11536;50.860;4.286;2023-03-09T04:07:06;4.90;99.90
22738;DHT22;11536;50.860;4.286;2023-03-09T04:09:32;5.00;99.90
22738;DHT22;11536;50.860;4.286;2023-03-09T04:11:58;5.00;99.90
22738;DHT22;11536;50.860;4.286;2023-03-09T04:14:23;5.00;99.90
22738;DHT22;11536;50.860;4.286;2023-03-09T04:16:49;5.00;99.90
22738;DHT22;11536;50.860;4.286;2023-03-09T04:19:15;5.00;99.90
22738;DHT22;11536;50.860;4.286;2023-03-09T04:21:40;5.00;99.90
22738;DHT22;11536;50.860;4.286;2023-03-09T04:24:06;5.00;99.90
22738;DHT22;11536;50.860;4.286;2023-03-09T04:26:32;5.00;99.90
22738;DHT22;11536;50.860;4.286;2023-03-09T04:28:58;5.00;99.90
22738;DHT22;11536;50.860;4.286;2023-03-09T04:31:23;5.00;99.90
22738;DHT22;11536;50.860;4.286;2023-03-09T04:33:49;5.00;99.90
22738;DHT22;11536;50.860;4.286;2023-03-09T04:36:14;4.90;99.90
22738;DHT22;11536;50.860;4.286;2023-03-09T04:38:40;4.90;99.90
22738;DHT22;11536;50.860;4.286;2023-03-09T04:41:06;4.90;99.90
22738;DHT22;11536;50.860;4.286;2023-03-09T04:43:33;4.90;99.90
22738;DHT22;11536;50.860;4.286;2023-03-09T04:45:58;4.90;99.90
22738;DHT22;11536;50.860;4.286;2023-03-09T04:48:24;4.90;99.90
22738;DHT22;11536;50.860;4.286;2023-03-09T04:50:50;4.90;99.90
22738;DHT22;11536;50.860;4.286;2023-03-09T04:53:15;4.90;99.90
22738;DHT22;11536;50.860;4.286;2023-03-09T04:55:41;4.90;99.90
22738;DHT22;11536;50.860;4.286;2023-03-09T04:58:06;4.90;99.90
22738;DHT22;11536;50.860;4.286;2023-03-09T05:00:32;5.00;99.90
22738;DHT22;11536;50.860;4.286;2023-03-09T05:02:58;5.00;99.90
22738;DHT22;11536;50.860;4.286;2023-03-09T05:05:24;5.00;99.90
22738;DHT22;11536;50.860;4.286;2023-03-09T05:07:49;4.90;99.90
22738;DHT22;11536;50.860;4.286;2023-03-09T05:10:15;4.90;99.90
22738;DHT22;11536;50.860;4.286;2023-03-09T05:12:41;5.00;99.90
22738;DHT22;11536;50.860;4.286;2023-03-09T05:15:08;5.00;99.90
22738;DHT22;11536;50.860;4.286;2023-03-09T05:17:35;5.00;99.90
22738;DHT22;11536;50.860;4.286;2023-03-09T05:20:00;4.90;99.90
22738;DHT22;11536;50.860;4.286;2023-03-09T05:22:26;4.90;99.90
22738;DHT22;11536;50.860;4.286;2023-03-09T05:24:52;4.90;99.90
22738;DHT22;11536;50.860;4.286;2023-03-09T05:27:17;4.80;99.90
22738;DHT22;11536;50.860;4.286;2023-03-09T05:29:43;4.80;99.90
22738;DHT22;11536;50.860;4.286;2023-03-09T05:32:09;4.80;99.90
22738;DHT22;11536;50.860;4.286;2023-03-09T05:34:35;4.90;99.90
22738;DHT22;11536;50.860;4.286;2023-03-09T05:37:01;4.90;99.90
22738;DHT22;11536;50.860;4.286;2023-03-09T05:39:27;4.90;99.90
22738;DHT22;11536;50.860;4.286;2023-03-09T05:41:53;5.00;99.90
22738;DHT22;11536;50.860;4.286;2023-03-09T05:44:19;5.00;99.90
22738;DHT22;11536;50.860;4.286;2023-03-09T05:46:44;5.00;99.90
22738;DHT22;11536;50.860;4.286;2023-03-09T05:49:10;5.00;99.90
22738;DHT22;11536;50.860;4.286;2023-03-09T05:51:36;5.10;99.90
22738;DHT22;11536;50.860;4.286;2023-03-09T05:54:01;5.00;99.90
22738;DHT22;11536;50.860;4.286;2023-03-09T05:56:27;5.00;99.90
22738;DHT22;11536;50.860;4.286;2023-03-09T05:58:53;5.00;99.90
22738;DHT22;11536;50.860;4.286;2023-03-09T06:01:22;5.00;99.90
22738;DHT22;11536;50.860;4.286;2023-03-09T06:03:47;5.00;99.90
22738;DHT22;11536;50.860;4.286;2023-03-09T06:06:15;5.00;99.90
22738;DHT22;11536;50.860;4.286;2023-03-09T06:08:41;5.00;99.90
22738;DHT22;11536;50.860;4.286;2023-03-09T06:11:07;5.00;99.90
22738;DHT22;11536;50.860;4.286;2023-03-09T06:13:33;5.00;99.90
22738;DHT22;11536;50.860;4.286;2023-03-09T06:16:05;4.90;99.90
22738;DHT22;11536;50.860;4.286;2023-03-09T06:18:31;4.90;99.90
22738;DHT22;11536;50.860;4.286;2023-03-09T06:21:00;4.90;99.90
22738;DHT22;11536;50.860;4.286;2023-03-09T06:23:26;4.90;99.90
22738;DHT22;11536;50.860;4.286;2023-03-09T06:25:55;4.90;99.90
22738;DHT22;11536;50.860;4.286;2023-03-09T06:28:21;4.90;99.90
22738;DHT22;11536;50.860;4.286;2023-03-09T06:30:47;4.90;99.90
22738;DHT22;11536;50.860;4.286;2023-03-09T06:33:13;4.90;99.90
22738;DHT22;11536;50.860;4.286;2023-03-09T06:35:39;4.90;99.90
22738;DHT22;11536;50.860;4.286;2023-03-09T06:38:06;4.90;99.90
22738;DHT22;11536;50.860;4.286;2023-03-09T06:40:31;4.90;99.90
22738;DHT22;11536;50.860;4.286;2023-03-09T06:42:57;4.80;99.90
22738;DHT22;11536;50.860;4.286;2023-03-09T06:45:23;4.80;99.90
22738;DHT22;11536;50.860;4.286;2023-03-09T06:47:52;4.80;99.90
22738;DHT22;11536;50.860;4.286;2023-03-09T06:50:18;4.80;99.90
22738;DHT22;11536;50.860;4.286;2023-03-09T06:52:44;4.80;99.90
22738;DHT22;11536;50.860;4.286;2023-03-09T06:55:10;4.80;99.90
22738;DHT22;11536;50.860;4.286;2023-03-09T06:57:37;4.80;99.90
22738;DHT22;11536;50.860;4.286;2023-03-09T07:00:03;4.80;99.90
22738;DHT22;11536;50.860;4.286;2023-03-09T07:02:30;4.80;99.90
22738;DHT22;11536;50.860;4.286;2023-03-09T07:04:56;4.70;99.90
22738;DHT22;11536;50.860;4.286;2023-03-09T07:07:22;4.80;99.90
22738;DHT22;11536;50.860;4.286;2023-03-09T07:09:47;4.80;99.90
22738;DHT22;11536;50.860;4.286;2023-03-09T07:12:13;4.80;99.90
22738;DHT22;11536;50.860;4.286;2023-03-09T07:14:39;4.90;99.90
22738;DHT22;11536;50.860;4.286;2023-03-09T07:17:04;4.90;99.90
22738;DHT22;11536;50.860;4.286;2023-03-09T07:19:30;4.90;99.90
22738;DHT22;11536;50.860;4.286;2023-03-09T07:21:56;4.90;99.90
22738;DHT22;11536;50.860;4.286;2023-03-09T07:24:21;4.90;99.90
22738;DHT22;11536;50.860;4.286;2023-03-09T07:26:48;4.90;99.90
22738;DHT22;11536;50.860;4.286;2023-03-09T07:29:14;4.90;99.90
22738;DHT22;11536;50.860;4.286;2023-03-09T07:31:40;5.00;99.90
22738;DHT22;11536;50.860;4.286;2023-03-09T07:34:05;5.00;99.90
22738;DHT22;11536;50.860;4.286;2023-03-09T07:36:31;5.00;99.90
22738;DHT22;11536;50.860;4.286;2023-03-09T07:38:57;5.10;99.90
22738;DHT22;11536;50.860;4.286;2023-03-09T07:41:22;5.10;99.90
22738;DHT22;11536;50.860;4.286;2023-03-09T07:43:48;5.10;99.90
22738;DHT22;11536;50.860;4.286;2023-03-09T07:46:14;5.20;99.90
22738;DHT22;11536;50.860;4.286;2023-03-09T07:48:42;5.10;99.90
22738;DHT22;11536;50.860;4.286;2023-03-09T07:51:09;5.20;99.90
22738;DHT22;11536;50.860;4.286;2023-03-09T07:53:36;5.20;99.90
22738;DHT22;11536;50.860;4.286;2023-03-09T07:56:02;5.20;99.90
22738;DHT22;11536;50.860;4.286;2023-03-09T07:58:33;5.20;99.90
22738;DHT22;11536;50.860;4.286;2023-03-09T08:00:59;5.20;99.90
22738;DHT22;11536;50.860;4.286;2023-03-09T08:03:26;5.30;99.90
22738;DHT22;11536;50.860;4.286;2023-03-09T08:05:51;5.30;99.90
22738;DHT22;11536;50.860;4.286;2023-03-09T08:08:22;5.30;99.90
22738;DHT22;11536;50.860;4.286;2023-03-09T08:10:51;5.30;99.90
22738;DHT22;11536;50.860;4.286;2023-03-09T08:13:18;5.40;99.90
22738;DHT22;11536;50.860;4.286;2023-03-09T08:15:44;5.40;99.90
22738;DHT22;11536;50.860;4.286;2023-03-09T08:18:10;5.50;99.90
22738;DHT22;11536;50.860;4.286;2023-03-09T08:20:35;5.50;99.90
22738;DHT22;11536;50.860;4.286;2023-03-09T08:23:02;5.50;99.90
22738;DHT22;11536;50.860;4.286;2023-03-09T08:25:28;5.50;99.90
22738;DHT22;11536;50.860;4.286;2023-03-09T08:27:55;5.50;99.90
22738;DHT22;11536;50.860;4.286;2023-03-09T08:30:21;5.60;99.90
22738;DHT22;11536;50.860;4.286;2023-03-09T08:32:51;5.60;99.90
22738;DHT22;11536;50.860;4.286;2023-03-09T08:35:18;5.60;99.90
22738;DHT22;11536;50.860;4.286;2023-03-09T08:37:44;5.60;99.90
22738;DHT22;11536;50.860;4.286;2023-03-09T08:40:11;5.70;99.90
22738;DHT22;11536;50.860;4.286;2023-03-09T08:42:37;5.70;99.90
22738;DHT22;11536;50.860;4.286;2023-03-09T08:45:04;5.70;99.90
22738;DHT22;11536;50.860;4.286;2023-03-09T08:47:30;5.80;99.90
22738;DHT22;11536;50.860;4.286;2023-03-09T08:49:56;5.80;99.90
22738;DHT22;11536;50.860;4.286;2023-03-09T08:52:21;5.80;99.90
22738;DHT22;11536;50.860;4.286;2023-03-09T08:54:47;5.80;99.90
22738;DHT22;11536;50.860;4.286;2023-03-09T08:57:13;5.90;99.90
22738;DHT22;11536;50.860;4.286;2023-03-09T08:59:39;6.00;99.90
22738;DHT22;11536;50.860;4.286;2023-03-09T09:02:04;6.00;99.90
22738;DHT22;11536;50.860;4.286;2023-03-09T09:04:30;6.00;99.90
22738;DHT22;11536;50.860;4.286;2023-03-09T09:06:56;6.00;99.90
22738;DHT22;11536;50.860;4.286;2023-03-09T09:09:21;6.10;99.90
22738;DHT22;11536;50.860;4.286;2023-03-09T09:11:47;6.10;99.90
22738;DHT22;11536;50.860;4.286;2023-03-09T09:14:13;6.10;99.90
22738;DHT22;11536;50.860;4.286;2023-03-09T09:16:39;6.10;99.90
22738;DHT22;11536;50.860;4.286;2023-03-09T09:19:05;6.10;99.90
22738;DHT22;11536;50.860;4.286;2023-03-09T09:21:31;6.20;99.90
22738;DHT22;11536;50.860;4.286;2023-03-09T09:23:56;6.20;99.90
22738;DHT22;11536;50.860;4.286;2023-03-09T09:26:22;6.30;99.90
22738;DHT22;11536;50.860;4.286;2023-03-09T09:28:48;6.30;99.90
22738;DHT22;11536;50.860;4.286;2023-03-09T09:31:19;6.40;99.90
22738;DHT22;11536;50.860;4.286;2023-03-09T09:33:46;6.40;99.90
22738;DHT22;11536;50.860;4.286;2023-03-09T09:36:15;6.40;99.90
22738;DHT22;11536;50.860;4.286;2023-03-09T09:38:42;6.50;99.90
22738;DHT22;11536;50.860;4.286;2023-03-09T09:41:30;6.50;99.90
22738;DHT22;11536;50.860;4.286;2023-03-09T09:44:04;6.60;99.90
22738;DHT22;11536;50.860;4.286;2023-03-09T09:46:34;6.60;99.90
22738;DHT22;11536;50.860;4.286;2023-03-09T09:49:01;6.70;99.90
22738;DHT22;11536;50.860;4.286;2023-03-09T09:57:04;6.80;99.90
22738;DHT22;11536;50.860;4.286;2023-03-09T09:59:57;6.80;99.90
22738;DHT22;11536;50.860;4.286;2023-03-09T10:03:10;6.90;99.90
22738;DHT22;11536;50.860;4.286;2023-03-09T10:05:56;6.90;99.90
22738;DHT22;11536;50.860;4.286;2023-03-09T10:11:33;7.00;99.90
22738;DHT22;11536;50.860;4.286;2023-03-09T10:14:07;7.00;99.90
22738;DHT22;11536;50.860;4.286;2023-03-09T10:16:39;7.00;99.90
22738;DHT22;11536;50.860;4.286;2023-03-09T10:19:17;7.10;99.90
22738;DHT22;11536;50.860;4.286;2023-03-09T10:21:54;7.10;99.90
22738;DHT22;11536;50.860;4.286;2023-03-09T10:24:23;7.20;99.90
22738;DHT22;11536;50.860;4.286;2023-03-09T10:32:49;7.40;99.90
22738;DHT22;11536;50.860;4.286;2023-03-09T10:37:47;7.50;99.90
22738;DHT22;11536;50.860;4.286;2023-03-09T10:40:19;7.50;99.90
22738;DHT22;11536;50.860;4.286;2023-03-09T10:42:44;7.60;99.90
22738;DHT22;11536;50.860;4.286;2023-03-09T10:45:23;7.70;99.90
22738;DHT22;11536;50.860;4.286;2023-03-09T10:48:04;7.80;99.90
22738;DHT22;11536;50.860;4.286;2023-03-09T10:50:36;8.00;99.90
22738;DHT22;11536;50.860;4.286;2023-03-09T10:53:35;8.10;99.90
22738;DHT22;11536;50.860;4.286;2023-03-09T10:56:12;8.20;99.90
22738;DHT22;11536;50.860;4.286;2023-03-09T10:58:39;8.30;99.90
22738;DHT22;11536;50.860;4.286;2023-03-09T11:01:21;8.40;99.90
22738;DHT22;11536;50.860;4.286;2023-03-09T11:03:47;8.50;99.90
22738;DHT22;11536;50.860;4.286;2023-03-09T11:08:41;8.60;99.90
22738;DHT22;11536;50.860;4.286;2023-03-09T11:11:16;8.60;99.90
22738;DHT22;11536;50.860;4.286;2023-03-09T11:13:45;8.70;99.90
22738;DHT22;11536;50.860;4.286;2023-03-09T11:16:15;8.70;99.90
22738;DHT22;11536;50.860;4.286;2023-03-09T11:18:42;8.80;99.90
22738;DHT22;11536;50.860;4.286;2023-03-09T11:21:09;8.80;99.90
22738;DHT22;11536;50.860;4.286;2023-03-09T11:23:40;8.80;99.90
22738;DHT22;11536;50.860;4.286;2023-03-09T11:26:11;8.90;99.90
22738;DHT22;11536;50.860;4.286;2023-03-09T11:31:16;9.00;99.90
22738;DHT22;11536;50.860;4.286;2023-03-09T11:33:43;9.10;99.90
22738;DHT22;11536;50.860;4.286;2023-03-09T11:36:22;9.10;99.90
22738;DHT22;11536;50.860;4.286;2023-03-09T11:38:49;9.20;99.90
22738;DHT22;11536;50.860;4.286;2023-03-09T11:41:31;9.20;99.90
22738;DHT22;11536;50.860;4.286;2023-03-09T11:46:45;9.30;99.90
22738;DHT22;11536;50.860;4.286;2023-03-09T11:49:15;9.30;99.90
22738;DHT22;11536;50.860;4.286;2023-03-09T11:51:46;9.40;99.90
22738;DHT22;11536;50.860;4.286;2023-03-09T11:54:31;9.40;99.90
22738;DHT22;11536;50.860;4.286;2023-03-09T11:57:01;9.50;99.90
22738;DHT22;11536;50.860;4.286;2023-03-09T11:59:55;9.60;99.90
22738;DHT22;11536;50.860;4.286;2023-03-09T12:04:55;9.80;99.90
22738;DHT22;11536;50.860;4.286;2023-03-09T12:07:41;9.90;99.90
22738;DHT22;11536;50.860;4.286;2023-03-09T12:10:17;10.00;99.90
22738;DHT22;11536;50.860;4.286;2023-03-09T12:12:52;10.10;99.90
22738;DHT22;11536;50.860;4.286;2023-03-09T12:15:27;10.20;99.90
22738;DHT22;11536;50.860;4.286;2023-03-09T12:17:59;10.20;99.90
22738;DHT22;11536;50.860;4.286;2023-03-09T12:20:32;10.40;99.90
22738;DHT22;11536;50.860;4.286;2023-03-09T12:22:59;10.50;99.90
22738;DHT22;11536;50.860;4.286;2023-03-09T12:25:26;10.60;99.90
22738;DHT22;11536;50.860;4.286;2023-03-09T12:27:57;10.60;99.90
22738;DHT22;11536;50.860;4.286;2023-03-09T12:30:30;10.70;99.90
22738;DHT22;11536;50.860;4.286;2023-03-09T12:33:00;10.90;99.90
22738;DHT22;11536;50.860;4.286;2023-03-09T12:40:33;11.30;99.90
22738;DHT22;11536;50.860;4.286;2023-03-09T12:45:41;11.60;99.90
22738;DHT22;11536;50.860;4.286;2023-03-09T12:50:50;11.90;99.90
22738;DHT22;11536;50.860;4.286;2023-03-09T12:53:25;12.00;99.90
22738;DHT22;11536;50.860;4.286;2023-03-09T12:56:00;12.10;99.90
22738;DHT22;11536;50.860;4.286;2023-03-09T12:58:40;12.30;99.90
22738;DHT22;11536;50.860;4.286;2023-03-09T13:03:54;12.60;99.90
22738;DHT22;11536;50.860;4.286;2023-03-09T13:06:34;12.70;99.90
22738;DHT22;11536;50.860;4.286;2023-03-09T13:09:01;12.80;99.90
22738;DHT22;11536;50.860;4.286;2023-03-09T13:16:58;13.10;99.90
22738;DHT22;11536;50.860;4.286;2023-03-09T13:26:56;13.00;99.90
22738;DHT22;11536;50.860;4.286;2023-03-09T13:29:25;13.00;99.90
22738;DHT22;11536;50.860;4.286;2023-03-09T13:31:52;13.00;99.90
22738;DHT22;11536;50.860;4.286;2023-03-09T13:34:25;12.90;99.90
22738;DHT22;11536;50.860;4.286;2023-03-09T13:37:02;12.90;99.90
22738;DHT22;11536;50.860;4.286;2023-03-09T13:39:29;13.00;99.90
22738;DHT22;11536;50.860;4.286;2023-03-09T13:41:58;12.90;99.90
22738;DHT22;11536;50.860;4.286;2023-03-09T13:44:25;12.90;99.90
22738;DHT22;11536;50.860;4.286;2023-03-09T13:46:54;12.90;99.90
22738;DHT22;11536;50.860;4.286;2023-03-09T13:49:24;12.90;99.90
22738;DHT22;11536;50.860;4.286;2023-03-09T13:51:52;12.90;99.90
22738;DHT22;11536;50.860;4.286;2023-03-09T13:54:26;12.90;99.90
22738;DHT22;11536;50.860;4.286;2023-03-09T14:02:09;12.80;99.90
22738;DHT22;11536;50.860;4.286;2023-03-09T14:07:21;12.80;99.90
22738;DHT22;11536;50.860;4.286;2023-03-09T14:10:04;12.90;99.90
22738;DHT22;11536;50.860;4.286;2023-03-09T14:12:38;12.80;99.90
22738;DHT22;11536;50.860;4.286;2023-03-09T14:15:12;12.90;99.90
22738;DHT22;11536;50.860;4.286;2023-03-09T14:17:40;12.80;99.90
22738;DHT22;11536;50.860;4.286;2023-03-09T14:20:23;12.80;99.90
22738;DHT22;11536;50.860;4.286;2023-03-09T14:22:50;12.80;99.90
22738;DHT22;11536;50.860;4.286;2023-03-09T14:25:30;12.80;99.90
22738;DHT22;11536;50.860;4.286;2023-03-09T14:27:57;12.80;99.90
22738;DHT22;11536;50.860;4.286;2023-03-09T14:30:32;12.80;99.90
22738;DHT22;11536;50.860;4.286;2023-03-09T14:33:27;12.80;99.90
22738;DHT22;11536;50.860;4.286;2023-03-09T14:36:18;12.80;99.90
22738;DHT22;11536;50.860;4.286;2023-03-09T14:38:52;12.80;99.90
22738;DHT22;11536;50.860;4.286;2023-03-09T14:41:21;12.80;99.90
22738;DHT22;11536;50.860;4.286;2023-03-09T14:43:47;12.80;99.90
22738;DHT22;11536;50.860;4.286;2023-03-09T14:46:18;12.80;99.90
22738;DHT22;11536;50.860;4.286;2023-03-09T14:48:48;12.80;99.90
22738;DHT22;11536;50.860;4.286;2023-03-09T14:51:22;12.80;99.90
22738;DHT22;11536;50.860;4.286;2023-03-09T14:56:16;12.90;99.90
22738;DHT22;11536;50.860;4.286;2023-03-09T14:58:42;12.90;99.90
22738;DHT22;11536;50.860;4.286;2023-03-09T15:01:08;13.00;99.90
22738;DHT22;11536;50.860;4.286;2023-03-09T15:03:33;13.00;99.90
22738;DHT22;11536;50.860;4.286;2023-03-09T15:05:59;13.00;99.90
22738;DHT22;11536;50.860;4.286;2023-03-09T15:08:25;13.10;99.90
22738;DHT22;11536;50.860;4.286;2023-03-09T15:10:51;13.10;99.90
22738;DHT22;11536;50.860;4.286;2023-03-09T15:13:17;13.10;99.90
22738;DHT22;11536;50.860;4.286;2023-03-09T15:15:42;13.10;99.90
22738;DHT22;11536;50.860;4.286;2023-03-09T15:18:11;13.10;99.90
22738;DHT22;11536;50.860;4.286;2023-03-09T15:20:37;13.10;99.90
22738;DHT22;11536;50.860;4.286;2023-03-09T15:23:03;13.10;99.90
22738;DHT22;11536;50.860;4.286;2023-03-09T15:25:28;13.10;99.90
22738;DHT22;11536;50.860;4.286;2023-03-09T15:27:54;13.10;99.90
22738;DHT22;11536;50.860;4.286;2023-03-09T15:30:20;13.20;99.90
22738;DHT22;11536;50.860;4.286;2023-03-09T15:32:45;13.20;99.90
22738;DHT22;11536;50.860;4.286;2023-03-09T15:35:15;13.20;99.90
22738;DHT22;11536;50.860;4.286;2023-03-09T15:37:41;13.20;99.90
22738;DHT22;11536;50.860;4.286;2023-03-09T15:40:09;13.20;99.90
22738;DHT22;11536;50.860;4.286;2023-03-09T15:42:39;13.20;99.90
22738;DHT22;11536;50.860;4.286;2023-03-09T15:45:11;13.20;99.90
22738;DHT22;11536;50.860;4.286;2023-03-09T15:47:37;13.20;99.90
22738;DHT22;11536;50.860;4.286;2023-03-09T15:50:04;13.20;99.90
22738;DHT22;11536;50.860;4.286;2023-03-09T15:52:35;13.20;99.90
22738;DHT22;11536;50.860;4.286;2023-03-09T15:55:01;13.20;99.90
22738;DHT22;11536;50.860;4.286;2023-03-09T15:57:27;13.20;99.90
22738;DHT22;11536;50.860;4.286;2023-03-09T15:59:55;13.20;99.90
22738;DHT22;11536;50.860;4.286;2023-03-09T16:02:24;13.20;99.90
22738;DHT22;11536;50.860;4.286;2023-03-09T16:04:51;13.10;99.90
22738;DHT22;11536;50.860;4.286;2023-03-09T16:07:16;13.20;99.90
22738;DHT22;11536;50.860;4.286;2023-03-09T16:10:03;13.10;99.90
22738;DHT22;11536;50.860;4.286;2023-03-09T16:12:29;13.10;99.90
22738;DHT22;11536;50.860;4.286;2023-03-09T16:14:55;13.20;99.90
22738;DHT22;11536;50.860;4.286;2023-03-09T16:17:21;13.10;99.90
22738;DHT22;11536;50.860;4.286;2023-03-09T16:19:47;13.10;99.90
22738;DHT22;11536;50.860;4.286;2023-03-09T16:22:17;13.00;99.90
22738;DHT22;11536;50.860;4.286;2023-03-09T16:24:43;13.00;99.90
22738;DHT22;11536;50.860;4.286;2023-03-09T16:27:09;13.00;99.90
22738;DHT22;11536;50.860;4.286;2023-03-09T16:29:34;13.00;99.90
22738;DHT22;11536;50.860;4.286;2023-03-09T16:32:00;13.00;99.90
22738;DHT22;11536;50.860;4.286;2023-03-09T16:34:33;12.90;99.90
22738;DHT22;11536;50.860;4.286;2023-03-09T16:36:59;13.00;99.90
22738;DHT22;11536;50.860;4.286;2023-03-09T16:39:25;12.90;99.90
22738;DHT22;11536;50.860;4.286;2023-03-09T16:41:54;12.90;99.90
22738;DHT22;11536;50.860;4.286;2023-03-09T16:44:20;12.80;99.90
22738;DHT22;11536;50.860;4.286;2023-03-09T16:46:52;12.80;99.90
22738;DHT22;11536;50.860;4.286;2023-03-09T16:49:18;12.80;99.90
22738;DHT22;11536;50.860;4.286;2023-03-09T16:51:44;12.80;99.90
22738;DHT22;11536;50.860;4.286;2023-03-09T16:54:10;12.80;99.90
22738;DHT22;11536;50.860;4.286;2023-03-09T16:56:36;12.70;99.90
22738;DHT22;11536;50.860;4.286;2023-03-09T16:59:01;12.70;99.90
22738;DHT22;11536;50.860;4.286;2023-03-09T17:01:27;12.70;99.90
22738;DHT22;11536;50.860;4.286;2023-03-09T17:03:53;12.70;99.90
22738;DHT22;11536;50.860;4.286;2023-03-09T17:06:21;12.70;99.90
22738;DHT22;11536;50.860;4.286;2023-03-09T17:08:49;12.70;99.90